sensor_id;sensor_type;location;lat;lon;timestamp;P1;durP1;ratioP1;P2;durP2;ratioP2
31284;SDS011;56605;51.516;6.742;2023-02-12T00:01:12;66.15;;;30.38;;
31284;SDS011;56605;51.516;6.742;2023-02-12T00:03:38;66.07;;;31.52;;
31284;SDS011;56605;51.516;6.742;2023-02-12T00:06:04;62.35;;;29.48;;
31284;SDS011;56605;51.516;6.742;2023-02-12T00:08:31;71.45;;;30.52;;
31284;SDS011;56605;51.516;6.742;2023-02-12T00:10:56;64.80;;;29.25;;
31284;SDS011;56605;51.516;6.742;2023-02-12T00:13:21;64.68;;;30.45;;
31284;SDS011;56605;51.516;6.742;2023-02-12T00:15:47;69.57;;;31.10;;
31284;SDS011;56605;51.516;6.742;2023-02-12T00:18:12;63.17;;;28.02;;
31284;SDS011;56605;51.516;6.742;2023-02-12T00:20:38;64.25;;;29.90;;
31284;SDS011;56605;51.516;6.742;2023-02-12T00:23:03;62.95;;;28.17;;
31284;SDS011;56605;51.516;6.742;2023-02-12T00:25:30;66.72;;;29.20;;
31284;SDS011;56605;51.516;6.742;2023-02-12T00:27:55;64.93;;;29.10;;
31284;SDS011;56605;51.516;6.742;2023-02-12T00:30:21;71.40;;;30.05;;
31284;SDS011;56605;51.516;6.742;2023-02-12T00:32:46;58.30;;;27.55;;
31284;SDS011;56605;51.516;6.742;2023-02-12T00:35:12;62.80;;;29.95;;
31284;SDS011;56605;51.516;6.742;2023-02-12T00:37:37;69.85;;;30.30;;
31284;SDS011;56605;51.516;6.742;2023-02-12T00:40:03;62.88;;;30.08;;
31284;SDS011;56605;51.516;6.742;2023-02-12T00:42:29;65.25;;;28.13;;
31284;SDS011;56605;51.516;6.742;2023-02-12T00:44:54;59.95;;;29.85;;
31284;SDS011;56605;51.516;6.742;2023-02-12T00:47:19;64.82;;;29.33;;
31284;SDS011;56605;51.516;6.742;2023-02-12T00:49:45;60.20;;;29.95;;
31284;SDS011;56605;51.516;6.742;2023-02-12T00:52:10;57.75;;;28.52;;
31284;SDS011;56605;51.516;6.742;2023-02-12T00:54:35;62.97;;;28.58;;
31284;SDS011;56605;51.516;6.742;2023-02-12T00:57:01;61.63;;;28.30;;
31284;SDS011;56605;51.516;6.742;2023-02-12T00:59:26;68.47;;;29.73;;
31284;SDS011;56605;51.516;6.742;2023-02-12T01:01:52;63.15;;;28.50;;
31284;SDS011;56605;51.516;6.742;2023-02-12T01:04:18;63.58;;;29.95;;
31284;SDS011;56605;51.516;6.742;2023-02-12T01:06:44;63.05;;;29.00;;
31284;SDS011;56605;51.516;6.742;2023-02-12T01:09:10;54.22;;;27.08;;
31284;SDS011;56605;51.516;6.742;2023-02-12T01:11:36;65.72;;;28.33;;
31284;SDS011;56605;51.516;6.742;2023-02-12T01:14:02;57.92;;;28.77;;
31284;SDS011;56605;51.516;6.742;2023-02-12T01:16:28;62.08;;;29.05;;
31284;SDS011;56605;51.516;6.742;2023-02-12T01:18:55;54.67;;;27.67;;
31284;SDS011;56605;51.516;6.742;2023-02-12T01:21:22;62.53;;;27.40;;
31284;SDS011;56605;51.516;6.742;2023-02-12T01:23:50;62.17;;;29.50;;
31284;SDS011;56605;51.516;6.742;2023-02-12T01:26:16;67.82;;;29.15;;
31284;SDS011;56605;51.516;6.742;2023-02-12T01:28:43;62.30;;;30.10;;
31284;SDS011;56605;51.516;6.742;2023-02-12T01:31:13;64.80;;;28.88;;
31284;SDS011;56605;51.516;6.742;2023-02-12T01:33:42;62.83;;;28.38;;
31284;SDS011;56605;51.516;6.742;2023-02-12T01:36:08;65.80;;;29.95;;
31284;SDS011;56605;51.516;6.742;2023-02-12T01:38:34;59.67;;;27.73;;
31284;SDS011;56605;51.516;6.742;2023-02-12T01:41:01;61.35;;;27.65;;
31284;SDS011;56605;51.516;6.742;2023-02-12T01:43:30;58.60;;;28.25;;
31284;SDS011;56605;51.516;6.742;2023-02-12T01:45:58;62.58;;;28.58;;
31284;SDS011;56605;51.516;6.742;2023-02-12T01:48:24;69.75;;;29.13;;
31284;SDS011;56605;51.516;6.742;2023-02-12T01:50:53;69.47;;;29.27;;
31284;SDS011;56605;51.516;6.742;2023-02-12T01:53:19;67.13;;;29.05;;
31284;SDS011;56605;51.516;6.742;2023-02-12T01:55:49;61.67;;;29.05;;
31284;SDS011;56605;51.516;6.742;2023-02-12T01:58:18;64.65;;;30.77;;
31284;SDS011;56605;51.516;6.742;2023-02-12T02:00:44;59.85;;;28.00;;
31284;SDS011;56605;51.516;6.742;2023-02-12T02:08:20;62.08;;;28.17;;
31284;SDS011;56605;51.516;6.742;2023-02-12T02:10:46;62.65;;;30.23;;
31284;SDS011;56605;51.516;6.742;2023-02-12T02:13:12;60.25;;;29.00;;
31284;SDS011;56605;51.516;6.742;2023-02-12T02:15:57;64.07;;;30.35;;
31284;SDS011;56605;51.516;6.742;2023-02-12T02:29:40;63.00;;;29.63;;
31284;SDS011;56605;51.516;6.742;2023-02-12T02:32:09;59.40;;;28.80;;
31284;SDS011;56605;51.516;6.742;2023-02-12T02:34:59;66.55;;;30.30;;
31284;SDS011;56605;51.516;6.742;2023-02-12T02:37:31;60.03;;;28.70;;
31284;SDS011;56605;51.516;6.742;2023-02-12T02:40:10;66.30;;;30.30;;
31284;SDS011;56605;51.516;6.742;2023-02-12T02:42:58;60.40;;;28.65;;
31284;SDS011;56605;51.516;6.742;2023-02-12T02:45:36;67.07;;;31.35;;
31284;SDS011;56605;51.516;6.742;2023-02-12T02:50:49;60.95;;;30.30;;
31284;SDS011;56605;51.516;6.742;2023-02-12T02:53:21;68.35;;;30.60;;
31284;SDS011;56605;51.516;6.742;2023-02-12T02:55:54;63.58;;;30.42;;
31284;SDS011;56605;51.516;6.742;2023-02-12T02:58:24;60.58;;;29.10;;
31284;SDS011;56605;51.516;6.742;2023-02-12T03:01:10;62.40;;;28.88;;
31284;SDS011;56605;51.516;6.742;2023-02-12T03:03:50;67.75;;;29.40;;
31284;SDS011;56605;51.516;6.742;2023-02-12T03:06:28;68.15;;;29.48;;
31284;SDS011;56605;51.516;6.742;2023-02-12T03:09:15;58.15;;;28.63;;
31284;SDS011;56605;51.516;6.742;2023-02-12T03:11:46;63.88;;;28.20;;
31284;SDS011;56605;51.516;6.742;2023-02-12T03:14:21;56.63;;;27.60;;
31284;SDS011;56605;51.516;6.742;2023-02-12T03:16:55;55.17;;;28.20;;
31284;SDS011;56605;51.516;6.742;2023-02-12T03:19:24;57.50;;;29.50;;
31284;SDS011;56605;51.516;6.742;2023-02-12T03:21:54;58.83;;;28.50;;
31284;SDS011;56605;51.516;6.742;2023-02-12T03:24:30;62.00;;;29.15;;
31284;SDS011;56605;51.516;6.742;2023-02-12T03:28:01;65.22;;;28.83;;
31284;SDS011;56605;51.516;6.742;2023-02-12T03:30:01;61.47;;;27.50;;
31284;SDS011;56605;51.516;6.742;2023-02-12T03:35:37;57.25;;;28.40;;
31284;SDS011;56605;51.516;6.742;2023-02-12T03:38:38;62.60;;;29.98;;
31284;SDS011;56605;51.516;6.742;2023-02-12T03:41:10;56.20;;;26.25;;
31284;SDS011;56605;51.516;6.742;2023-02-12T03:48:49;57.50;;;27.98;;
31284;SDS011;56605;51.516;6.742;2023-02-12T03:51:25;67.10;;;29.45;;
31284;SDS011;56605;51.516;6.742;2023-02-12T03:53:56;58.10;;;28.30;;
31284;SDS011;56605;51.516;6.742;2023-02-12T03:56:26;54.83;;;27.92;;
31284;SDS011;56605;51.516;6.742;2023-02-12T03:59:06;55.42;;;26.42;;
31284;SDS011;56605;51.516;6.742;2023-02-12T04:01:32;53.60;;;27.45;;
31284;SDS011;56605;51.516;6.742;2023-02-12T04:04:00;66.88;;;27.83;;
31284;SDS011;56605;51.516;6.742;2023-02-12T04:06:28;62.75;;;29.20;;
31284;SDS011;56605;51.516;6.742;2023-02-12T04:08:54;64.30;;;28.42;;
31284;SDS011;56605;51.516;6.742;2023-02-12T04:19:57;60.35;;;28.20;;
31284;SDS011;56605;51.516;6.742;2023-02-12T04:22:40;62.45;;;27.40;;
31284;SDS011;56605;51.516;6.742;2023-02-12T04:25:15;60.88;;;26.67;;
31284;SDS011;56605;51.516;6.742;2023-02-12T04:30:44;57.35;;;28.13;;
31284;SDS011;56605;51.516;6.742;2023-02-12T04:33:18;56.97;;;27.80;;
31284;SDS011;56605;51.516;6.742;2023-02-12T04:36:33;57.63;;;27.73;;
31284;SDS011;56605;51.516;6.742;2023-02-12T04:38:43;59.83;;;28.23;;
31284;SDS011;56605;51.516;6.742;2023-02-12T04:41:14;59.20;;;28.92;;
31284;SDS011;56605;51.516;6.742;2023-02-12T04:43:40;58.30;;;27.70;;
31284;SDS011;56605;51.516;6.742;2023-02-12T04:46:06;64.47;;;28.48;;
31284;SDS011;56605;51.516;6.742;2023-02-12T04:48:32;59.97;;;27.67;;
31284;SDS011;56605;51.516;6.742;2023-02-12T04:51:00;57.55;;;28.02;;
31284;SDS011;56605;51.516;6.742;2023-02-12T04:53:26;58.67;;;26.98;;
31284;SDS011;56605;51.516;6.742;2023-02-12T04:55:51;61.05;;;27.02;;
31284;SDS011;56605;51.516;6.742;2023-02-12T04:58:17;56.75;;;26.88;;
31284;SDS011;56605;51.516;6.742;2023-02-12T05:00:42;63.88;;;28.95;;
31284;SDS011;56605;51.516;6.742;2023-02-12T05:03:08;57.58;;;27.85;;
31284;SDS011;56605;51.516;6.742;2023-02-12T05:05:33;71.35;;;28.67;;
31284;SDS011;56605;51.516;6.742;2023-02-12T05:07:59;57.50;;;27.20;;
31284;SDS011;56605;51.516;6.742;2023-02-12T05:10:24;54.92;;;26.88;;
31284;SDS011;56605;51.516;6.742;2023-02-12T05:12:52;58.65;;;26.95;;
31284;SDS011;56605;51.516;6.742;2023-02-12T05:15:19;62.50;;;28.27;;
31284;SDS011;56605;51.516;6.742;2023-02-12T05:17:44;58.20;;;26.48;;
31284;SDS011;56605;51.516;6.742;2023-02-12T05:20:11;60.70;;;28.50;;
31284;SDS011;56605;51.516;6.742;2023-02-12T05:22:37;61.80;;;28.05;;
31284;SDS011;56605;51.516;6.742;2023-02-12T05:25:03;63.00;;;28.58;;
31284;SDS011;56605;51.516;6.742;2023-02-12T05:27:29;54.55;;;26.38;;
31284;SDS011;56605;51.516;6.742;2023-02-12T05:29:54;53.85;;;26.10;;
31284;SDS011;56605;51.516;6.742;2023-02-12T05:32:20;56.53;;;27.25;;
31284;SDS011;56605;51.516;6.742;2023-02-12T05:34:46;63.05;;;27.30;;
31284;SDS011;56605;51.516;6.742;2023-02-12T05:37:11;62.42;;;28.63;;
31284;SDS011;56605;51.516;6.742;2023-02-12T05:39:37;56.65;;;26.75;;
31284;SDS011;56605;51.516;6.742;2023-02-12T05:42:02;58.47;;;27.42;;
31284;SDS011;56605;51.516;6.742;2023-02-12T05:44:28;55.33;;;27.52;;
31284;SDS011;56605;51.516;6.742;2023-02-12T05:46:53;56.70;;;28.25;;
31284;SDS011;56605;51.516;6.742;2023-02-12T05:49:18;64.57;;;27.70;;
31284;SDS011;56605;51.516;6.742;2023-02-12T05:51:43;61.60;;;27.23;;
31284;SDS011;56605;51.516;6.742;2023-02-12T05:54:09;55.60;;;27.45;;
31284;SDS011;56605;51.516;6.742;2023-02-12T05:56:36;59.03;;;28.20;;
31284;SDS011;56605;51.516;6.742;2023-02-12T05:59:06;55.28;;;26.52;;
31284;SDS011;56605;51.516;6.742;2023-02-12T06:01:37;59.35;;;26.42;;
31284;SDS011;56605;51.516;6.742;2023-02-12T06:04:05;54.28;;;26.55;;
31284;SDS011;56605;51.516;6.742;2023-02-12T06:06:32;56.03;;;27.48;;
31284;SDS011;56605;51.516;6.742;2023-02-12T06:08:58;60.03;;;27.65;;
31284;SDS011;56605;51.516;6.742;2023-02-12T06:11:24;64.45;;;28.75;;
31284;SDS011;56605;51.516;6.742;2023-02-12T06:13:49;57.50;;;26.85;;
31284;SDS011;56605;51.516;6.742;2023-02-12T06:16:22;60.75;;;28.23;;
31284;SDS011;56605;51.516;6.742;2023-02-12T06:18:49;57.28;;;27.10;;
31284;SDS011;56605;51.516;6.742;2023-02-12T06:21:15;62.95;;;26.77;;
31284;SDS011;56605;51.516;6.742;2023-02-12T06:23:41;57.63;;;27.13;;
31284;SDS011;56605;51.516;6.742;2023-02-12T06:26:07;57.22;;;26.77;;
31284;SDS011;56605;51.516;6.742;2023-02-12T06:28:33;59.92;;;28.27;;
31284;SDS011;56605;51.516;6.742;2023-02-12T06:30:58;57.08;;;28.88;;
31284;SDS011;56605;51.516;6.742;2023-02-12T06:33:24;57.85;;;28.35;;
31284;SDS011;56605;51.516;6.742;2023-02-12T06:35:49;56.20;;;28.65;;
31284;SDS011;56605;51.516;6.742;2023-02-12T06:38:14;55.15;;;26.20;;
31284;SDS011;56605;51.516;6.742;2023-02-12T06:40:40;55.92;;;27.60;;
31284;SDS011;56605;51.516;6.742;2023-02-12T06:43:05;54.22;;;27.00;;
31284;SDS011;56605;51.516;6.742;2023-02-12T06:45:31;60.47;;;27.60;;
31284;SDS011;56605;51.516;6.742;2023-02-12T06:47:57;56.42;;;27.27;;
31284;SDS011;56605;51.516;6.742;2023-02-12T06:50:22;55.25;;;27.27;;
31284;SDS011;56605;51.516;6.742;2023-02-12T06:52:47;55.08;;;26.10;;
31284;SDS011;56605;51.516;6.742;2023-02-12T06:55:13;64.72;;;28.35;;
31284;SDS011;56605;51.516;6.742;2023-02-12T06:57:38;54.45;;;27.67;;
31284;SDS011;56605;51.516;6.742;2023-02-12T07:00:03;51.03;;;26.10;;
31284;SDS011;56605;51.516;6.742;2023-02-12T07:02:29;58.80;;;27.55;;
31284;SDS011;56605;51.516;6.742;2023-02-12T07:04:55;53.90;;;26.67;;
31284;SDS011;56605;51.516;6.742;2023-02-12T07:07:20;56.88;;;26.73;;
31284;SDS011;56605;51.516;6.742;2023-02-12T07:09:45;55.10;;;26.17;;
31284;SDS011;56605;51.516;6.742;2023-02-12T07:12:10;52.72;;;27.23;;
31284;SDS011;56605;51.516;6.742;2023-02-12T07:14:36;54.83;;;28.45;;
31284;SDS011;56605;51.516;6.742;2023-02-12T07:17:01;56.55;;;26.70;;
31284;SDS011;56605;51.516;6.742;2023-02-12T07:19:28;57.85;;;26.75;;
31284;SDS011;56605;51.516;6.742;2023-02-12T07:21:54;52.80;;;26.52;;
31284;SDS011;56605;51.516;6.742;2023-02-12T07:24:19;53.15;;;26.88;;
31284;SDS011;56605;51.516;6.742;2023-02-12T07:26:45;53.63;;;26.00;;
31284;SDS011;56605;51.516;6.742;2023-02-12T07:29:10;54.88;;;26.95;;
31284;SDS011;56605;51.516;6.742;2023-02-12T07:31:36;51.33;;;27.00;;
31284;SDS011;56605;51.516;6.742;2023-02-12T07:34:02;50.50;;;25.73;;
31284;SDS011;56605;51.516;6.742;2023-02-12T07:36:28;48.33;;;24.83;;
31284;SDS011;56605;51.516;6.742;2023-02-12T07:38:55;51.40;;;24.80;;
31284;SDS011;56605;51.516;6.742;2023-02-12T07:41:26;57.28;;;24.38;;
31284;SDS011;56605;51.516;6.742;2023-02-12T07:43:57;51.40;;;25.42;;
31284;SDS011;56605;51.516;6.742;2023-02-12T07:46:25;51.88;;;26.90;;
31284;SDS011;56605;51.516;6.742;2023-02-12T07:49:00;48.45;;;25.13;;
31284;SDS011;56605;51.516;6.742;2023-02-12T07:51:28;50.15;;;25.23;;
31284;SDS011;56605;51.516;6.742;2023-02-12T07:53:54;52.28;;;26.00;;
31284;SDS011;56605;51.516;6.742;2023-02-12T07:56:20;48.05;;;25.17;;
31284;SDS011;56605;51.516;6.742;2023-02-12T07:58:48;47.35;;;25.55;;
31284;SDS011;56605;51.516;6.742;2023-02-12T08:01:16;56.50;;;27.27;;
31284;SDS011;56605;51.516;6.742;2023-02-12T08:03:46;59.78;;;29.42;;
31284;SDS011;56605;51.516;6.742;2023-02-12T08:06:23;53.22;;;26.77;;
31284;SDS011;56605;51.516;6.742;2023-02-12T08:08:51;54.13;;;26.85;;
31284;SDS011;56605;51.516;6.742;2023-02-12T08:11:20;49.72;;;25.30;;
31284;SDS011;56605;51.516;6.742;2023-02-12T08:13:47;48.50;;;26.00;;
31284;SDS011;56605;51.516;6.742;2023-02-12T08:16:13;54.25;;;27.65;;
31284;SDS011;56605;51.516;6.742;2023-02-12T08:18:40;53.72;;;25.60;;
31284;SDS011;56605;51.516;6.742;2023-02-12T08:21:08;51.28;;;25.67;;
31284;SDS011;56605;51.516;6.742;2023-02-12T08:23:40;49.45;;;25.58;;
31284;SDS011;56605;51.516;6.742;2023-02-12T08:26:51;56.08;;;27.98;;
31284;SDS011;56605;51.516;6.742;2023-02-12T08:31:36;57.65;;;27.35;;
31284;SDS011;56605;51.516;6.742;2023-02-12T08:34:03;59.17;;;27.73;;
31284;SDS011;56605;51.516;6.742;2023-02-12T08:36:30;61.75;;;28.67;;
31284;SDS011;56605;51.516;6.742;2023-02-12T08:39:03;55.60;;;27.45;;
31284;SDS011;56605;51.516;6.742;2023-02-12T08:41:29;58.83;;;27.73;;
31284;SDS011;56605;51.516;6.742;2023-02-12T08:43:58;59.92;;;27.00;;
31284;SDS011;56605;51.516;6.742;2023-02-12T08:46:28;56.92;;;27.75;;
31284;SDS011;56605;51.516;6.742;2023-02-12T08:48:56;52.50;;;26.73;;
31284;SDS011;56605;51.516;6.742;2023-02-12T08:51:30;57.95;;;28.38;;
31284;SDS011;56605;51.516;6.742;2023-02-12T08:53:59;57.20;;;27.00;;
31284;SDS011;56605;51.516;6.742;2023-02-12T08:56:26;51.22;;;26.42;;
31284;SDS011;56605;51.516;6.742;2023-02-12T08:58:53;53.10;;;27.70;;
31284;SDS011;56605;51.516;6.742;2023-02-12T09:01:20;51.95;;;27.35;;
31284;SDS011;56605;51.516;6.742;2023-02-12T09:03:47;55.95;;;27.20;;
31284;SDS011;56605;51.516;6.742;2023-02-12T09:06:14;48.33;;;26.17;;
31284;SDS011;56605;51.516;6.742;2023-02-12T09:08:40;50.90;;;24.73;;
31284;SDS011;56605;51.516;6.742;2023-02-12T09:11:07;48.80;;;25.20;;
31284;SDS011;56605;51.516;6.742;2023-02-12T09:13:35;52.60;;;25.63;;
31284;SDS011;56605;51.516;6.742;2023-02-12T09:16:01;49.58;;;25.83;;
31284;SDS011;56605;51.516;6.742;2023-02-12T09:18:28;48.38;;;24.50;;
31284;SDS011;56605;51.516;6.742;2023-02-12T09:20:54;48.72;;;24.80;;
31284;SDS011;56605;51.516;6.742;2023-02-12T09:23:24;48.35;;;25.40;;
31284;SDS011;56605;51.516;6.742;2023-02-12T09:25:49;48.78;;;24.75;;
31284;SDS011;56605;51.516;6.742;2023-02-12T09:28:14;47.00;;;24.05;;
31284;SDS011;56605;51.516;6.742;2023-02-12T09:30:40;52.45;;;23.00;;
31284;SDS011;56605;51.516;6.742;2023-02-12T09:33:06;47.60;;;24.63;;
31284;SDS011;56605;51.516;6.742;2023-02-12T09:35:34;50.22;;;26.02;;
31284;SDS011;56605;51.516;6.742;2023-02-12T09:38:00;50.17;;;25.38;;
31284;SDS011;56605;51.516;6.742;2023-02-12T09:46:11;50.72;;;24.58;;
31284;SDS011;56605;51.516;6.742;2023-02-12T09:51:29;45.45;;;23.73;;
31284;SDS011;56605;51.516;6.742;2023-02-12T09:54:00;47.90;;;24.70;;
31284;SDS011;56605;51.516;6.742;2023-02-12T09:56:29;47.97;;;26.23;;
31284;SDS011;56605;51.516;6.742;2023-02-12T09:58:58;49.83;;;24.70;;
31284;SDS011;56605;51.516;6.742;2023-02-12T10:01:25;47.63;;;23.92;;
31284;SDS011;56605;51.516;6.742;2023-02-12T10:03:51;45.15;;;22.88;;
31284;SDS011;56605;51.516;6.742;2023-02-12T10:11:47;40.97;;;22.52;;
31284;SDS011;56605;51.516;6.742;2023-02-12T10:16:55;39.90;;;22.40;;
31284;SDS011;56605;51.516;6.742;2023-02-12T10:28:08;29.33;;;17.80;;
31284;SDS011;56605;51.516;6.742;2023-02-12T10:33:23;34.67;;;18.63;;
31284;SDS011;56605;51.516;6.742;2023-02-12T10:36:45;32.80;;;16.75;;
31284;SDS011;56605;51.516;6.742;2023-02-12T10:38:54;35.17;;;18.27;;
31284;SDS011;56605;51.516;6.742;2023-02-12T10:41:25;35.10;;;17.98;;
31284;SDS011;56605;51.516;6.742;2023-02-12T10:43:53;28.55;;;15.80;;
31284;SDS011;56605;51.516;6.742;2023-02-12T10:46:19;26.48;;;15.73;;
31284;SDS011;56605;51.516;6.742;2023-02-12T10:48:45;29.27;;;16.50;;
31284;SDS011;56605;51.516;6.742;2023-02-12T10:56:57;31.98;;;16.55;;
31284;SDS011;56605;51.516;6.742;2023-02-12T10:59:23;30.55;;;17.13;;
31284;SDS011;56605;51.516;6.742;2023-02-12T11:01:49;33.50;;;18.00;;
31284;SDS011;56605;51.516;6.742;2023-02-12T11:04:28;32.58;;;18.15;;
31284;SDS011;56605;51.516;6.742;2023-02-12T11:06:57;34.90;;;17.23;;
31284;SDS011;56605;51.516;6.742;2023-02-12T11:09:41;34.17;;;18.67;;
31284;SDS011;56605;51.516;6.742;2023-02-12T11:14:59;35.00;;;16.95;;
31284;SDS011;56605;51.516;6.742;2023-02-12T11:17:37;31.50;;;18.48;;
31284;SDS011;56605;51.516;6.742;2023-02-12T11:20:18;30.42;;;16.00;;
31284;SDS011;56605;51.516;6.742;2023-02-12T11:22:55;30.05;;;16.42;;
31284;SDS011;56605;51.516;6.742;2023-02-12T11:25:24;28.38;;;14.90;;
31284;SDS011;56605;51.516;6.742;2023-02-12T11:28:14;29.08;;;17.00;;
31284;SDS011;56605;51.516;6.742;2023-02-12T11:31:42;36.60;;;17.33;;
31284;SDS011;56605;51.516;6.742;2023-02-12T11:33:36;32.03;;;17.77;;
31284;SDS011;56605;51.516;6.742;2023-02-12T11:36:18;35.85;;;16.88;;
31284;SDS011;56605;51.516;6.742;2023-02-12T11:38:52;30.08;;;16.23;;
31284;SDS011;56605;51.516;6.742;2023-02-12T11:41:35;30.48;;;16.05;;
31284;SDS011;56605;51.516;6.742;2023-02-12T11:44:37;29.98;;;16.75;;
31284;SDS011;56605;51.516;6.742;2023-02-12T11:47:06;32.90;;;17.00;;
31284;SDS011;56605;51.516;6.742;2023-02-12T11:49:47;36.97;;;20.02;;
31284;SDS011;56605;51.516;6.742;2023-02-12T11:52:20;30.98;;;16.45;;
31284;SDS011;56605;51.516;6.742;2023-02-12T11:54:48;28.00;;;16.00;;
31284;SDS011;56605;51.516;6.742;2023-02-12T11:57:35;32.25;;;16.60;;
31284;SDS011;56605;51.516;6.742;2023-02-12T12:00:20;30.05;;;16.00;;
31284;SDS011;56605;51.516;6.742;2023-02-12T12:02:54;26.98;;;15.73;;
31284;SDS011;56605;51.516;6.742;2023-02-12T12:05:44;30.15;;;16.20;;
31284;SDS011;56605;51.516;6.742;2023-02-12T12:13:45;31.15;;;16.67;;
31284;SDS011;56605;51.516;6.742;2023-02-12T12:16:31;36.35;;;17.13;;
31284;SDS011;56605;51.516;6.742;2023-02-12T12:19:22;30.52;;;16.00;;
31284;SDS011;56605;51.516;6.742;2023-02-12T12:23:14;33.88;;;18.65;;
31284;SDS011;56605;51.516;6.742;2023-02-12T12:25:16;38.50;;;20.35;;
31284;SDS011;56605;51.516;6.742;2023-02-12T12:27:53;36.45;;;17.60;;
31284;SDS011;56605;51.516;6.742;2023-02-12T12:33:31;34.63;;;16.70;;
31284;SDS011;56605;51.516;6.742;2023-02-12T12:38:41;42.42;;;19.52;;
31284;SDS011;56605;51.516;6.742;2023-02-12T12:46:57;30.65;;;16.42;;
31284;SDS011;56605;51.516;6.742;2023-02-12T12:49:35;30.00;;;16.05;;
31284;SDS011;56605;51.516;6.742;2023-02-12T12:55:17;33.60;;;17.63;;
31284;SDS011;56605;51.516;6.742;2023-02-12T13:09:16;32.88;;;17.45;;
31284;SDS011;56605;51.516;6.742;2023-02-12T13:12:07;37.05;;;18.40;;
31284;SDS011;56605;51.516;6.742;2023-02-12T13:14:59;32.30;;;17.20;;
31284;SDS011;56605;51.516;6.742;2023-02-12T13:20:45;35.33;;;17.55;;
31284;SDS011;56605;51.516;6.742;2023-02-12T13:23:15;32.15;;;18.48;;
31284;SDS011;56605;51.516;6.742;2023-02-12T13:31:21;32.13;;;16.23;;
31284;SDS011;56605;51.516;6.742;2023-02-12T13:33:50;30.65;;;16.63;;
31284;SDS011;56605;51.516;6.742;2023-02-12T13:36:18;32.47;;;18.38;;
31284;SDS011;56605;51.516;6.742;2023-02-12T13:38:52;35.03;;;18.63;;
31284;SDS011;56605;51.516;6.742;2023-02-12T13:41:23;33.42;;;18.52;;
31284;SDS011;56605;51.516;6.742;2023-02-12T13:43:57;36.08;;;19.92;;
31284;SDS011;56605;51.516;6.742;2023-02-12T13:49:40;33.25;;;18.45;;
31284;SDS011;56605;51.516;6.742;2023-02-12T13:52:10;34.88;;;17.48;;
31284;SDS011;56605;51.516;6.742;2023-02-12T13:54:53;34.33;;;17.42;;
31284;SDS011;56605;51.516;6.742;2023-02-12T13:57:41;35.80;;;17.35;;
31284;SDS011;56605;51.516;6.742;2023-02-12T14:03:11;34.22;;;17.75;;
31284;SDS011;56605;51.516;6.742;2023-02-12T14:05:37;34.25;;;18.17;;
31284;SDS011;56605;51.516;6.742;2023-02-12T14:08:04;36.97;;;18.63;;
31284;SDS011;56605;51.516;6.742;2023-02-12T14:10:39;35.03;;;17.40;;
31284;SDS011;56605;51.516;6.742;2023-02-12T14:13:19;38.20;;;17.60;;
31284;SDS011;56605;51.516;6.742;2023-02-12T14:15:50;30.23;;;17.88;;
31284;SDS011;56605;51.516;6.742;2023-02-12T14:18:31;31.60;;;16.48;;
31284;SDS011;56605;51.516;6.742;2023-02-12T14:21:32;37.50;;;19.77;;
31284;SDS011;56605;51.516;6.742;2023-02-12T14:23:51;30.85;;;17.55;;
31284;SDS011;56605;51.516;6.742;2023-02-12T14:26:18;36.83;;;18.92;;
31284;SDS011;56605;51.516;6.742;2023-02-12T14:33:44;35.05;;;17.35;;
31284;SDS011;56605;51.516;6.742;2023-02-12T14:41:43;39.15;;;18.15;;
31284;SDS011;56605;51.516;6.742;2023-02-12T14:46:42;36.92;;;17.95;;
31284;SDS011;56605;51.516;6.742;2023-02-12T14:49:23;35.60;;;17.33;;
31284;SDS011;56605;51.516;6.742;2023-02-12T14:57:29;33.00;;;17.00;;
31284;SDS011;56605;51.516;6.742;2023-02-12T15:00:00;36.17;;;18.52;;
31284;SDS011;56605;51.516;6.742;2023-02-12T15:03:06;41.08;;;18.20;;
31284;SDS011;56605;51.516;6.742;2023-02-12T15:05:37;38.35;;;19.27;;
31284;SDS011;56605;51.516;6.742;2023-02-12T15:10:53;41.47;;;20.35;;
31284;SDS011;56605;51.516;6.742;2023-02-12T15:16:40;38.00;;;18.58;;
31284;SDS011;56605;51.516;6.742;2023-02-12T15:18:55;39.33;;;18.42;;
31284;SDS011;56605;51.516;6.742;2023-02-12T15:21:25;32.17;;;16.25;;
31284;SDS011;56605;51.516;6.742;2023-02-12T15:24:26;36.20;;;17.70;;
31284;SDS011;56605;51.516;6.742;2023-02-12T15:26:48;33.65;;;16.90;;
31284;SDS011;56605;51.516;6.742;2023-02-12T15:29:23;34.05;;;17.63;;
31284;SDS011;56605;51.516;6.742;2023-02-12T15:31:52;36.85;;;18.42;;
31284;SDS011;56605;51.516;6.742;2023-02-12T15:34:21;37.40;;;17.65;;
31284;SDS011;56605;51.516;6.742;2023-02-12T15:36:48;35.80;;;18.73;;
31284;SDS011;56605;51.516;6.742;2023-02-12T15:39:16;32.97;;;17.88;;
31284;SDS011;56605;51.516;6.742;2023-02-12T15:41:44;37.92;;;17.48;;
31284;SDS011;56605;51.516;6.742;2023-02-12T15:47:01;33.25;;;16.58;;
31284;SDS011;56605;51.516;6.742;2023-02-12T15:49:33;32.92;;;17.55;;
31284;SDS011;56605;51.516;6.742;2023-02-12T15:52:02;40.20;;;18.30;;
31284;SDS011;56605;51.516;6.742;2023-02-12T15:54:49;33.70;;;17.00;;
31284;SDS011;56605;51.516;6.742;2023-02-12T15:57:19;37.30;;;17.65;;
31284;SDS011;56605;51.516;6.742;2023-02-12T15:59:54;33.28;;;17.73;;
31284;SDS011;56605;51.516;6.742;2023-02-12T16:02:29;36.08;;;18.38;;
31284;SDS011;56605;51.516;6.742;2023-02-12T16:04:57;35.75;;;17.88;;
31284;SDS011;56605;51.516;6.742;2023-02-12T16:07:24;35.72;;;18.20;;
31284;SDS011;56605;51.516;6.742;2023-02-12T16:09:53;43.80;;;20.75;;
31284;SDS011;56605;51.516;6.742;2023-02-12T16:12:21;38.05;;;19.52;;
31284;SDS011;56605;51.516;6.742;2023-02-12T16:14:50;35.08;;;17.23;;
31284;SDS011;56605;51.516;6.742;2023-02-12T16:19:59;35.38;;;16.88;;
31284;SDS011;56605;51.516;6.742;2023-02-12T16:22:33;36.28;;;18.00;;
31284;SDS011;56605;51.516;6.742;2023-02-12T16:25:02;31.58;;;16.73;;
31284;SDS011;56605;51.516;6.742;2023-02-12T16:27:36;35.22;;;17.88;;
31284;SDS011;56605;51.516;6.742;2023-02-12T16:30:06;36.70;;;18.25;;
31284;SDS011;56605;51.516;6.742;2023-02-12T16:32:49;35.65;;;17.52;;
31284;SDS011;56605;51.516;6.742;2023-02-12T16:37:47;38.97;;;18.48;;
31284;SDS011;56605;51.516;6.742;2023-02-12T16:40:33;35.92;;;18.17;;
31284;SDS011;56605;51.516;6.742;2023-02-12T16:43:01;41.83;;;21.20;;
31284;SDS011;56605;51.516;6.742;2023-02-12T16:48:05;36.42;;;18.27;;
31284;SDS011;56605;51.516;6.742;2023-02-12T16:50:36;36.17;;;17.80;;
31284;SDS011;56605;51.516;6.742;2023-02-12T16:53:21;38.05;;;17.20;;
31284;SDS011;56605;51.516;6.742;2023-02-12T16:55:49;33.17;;;17.50;;
31284;SDS011;56605;51.516;6.742;2023-02-12T16:58:14;40.35;;;19.17;;
31284;SDS011;56605;51.516;6.742;2023-02-12T17:00:40;35.05;;;17.77;;
31284;SDS011;56605;51.516;6.742;2023-02-12T17:03:08;32.13;;;17.10;;
31284;SDS011;56605;51.516;6.742;2023-02-12T17:05:37;37.33;;;18.52;;
31284;SDS011;56605;51.516;6.742;2023-02-12T17:08:02;35.60;;;18.15;;
31284;SDS011;56605;51.516;6.742;2023-02-12T17:10:27;38.20;;;18.10;;
31284;SDS011;56605;51.516;6.742;2023-02-12T17:12:52;34.65;;;17.83;;
31284;SDS011;56605;51.516;6.742;2023-02-12T17:15:28;32.95;;;17.67;;
31284;SDS011;56605;51.516;6.742;2023-02-12T17:17:58;36.03;;;18.65;;
31284;SDS011;56605;51.516;6.742;2023-02-12T17:20:23;29.67;;;16.73;;